DIPPU LSZR-LSGL
Flight info
| Callsign | DIPPU |
|---|---|
| Flight time | N/A |
| Altitude | 13500 |
| Route | VFR |
| Aircraft | AEST/L-S/S |
Departure
| Time | 2026-04-12 12:29 |
|---|---|
| Airport | Sankt Gallen Altenrhein Airport (LSZR) |
Arrival
| Time | N/A |
|---|---|
| Airport | Lausanne la Blécherette Airport (LSGL) |
| Time | Latitude | Longitude | Altitude | Speed | Heading |
|---|---|---|---|---|---|
| 2026-04-12 12:28 | 47.39803 | 9.33077 | 7345 ft | 144 kts | 229° |
| 2026-04-12 12:29 | 47.39207 | 9.31907 | 7573 ft | 142 kts | 229° |
| 2026-04-12 12:29 | 47.38661 | 9.30699 | 7797 ft | 141 kts | 232° |
| 2026-04-12 12:29 | 47.38140 | 9.29471 | 8023 ft | 142 kts | 232° |
| 2026-04-12 12:29 | 47.37627 | 9.28253 | 8234 ft | 141 kts | 232° |
| 2026-04-12 12:30 | 47.37117 | 9.27026 | 8463 ft | 139 kts | 232° |
| 2026-04-12 12:30 | 47.36625 | 9.25824 | 8675 ft | 136 kts | 232° |
| 2026-04-12 12:30 | 47.36139 | 9.24610 | 8863 ft | 137 kts | 232° |
| 2026-04-12 12:30 | 47.35662 | 9.23406 | 9069 ft | 135 kts | 233° |
| 2026-04-12 12:31 | 47.35195 | 9.22196 | 9260 ft | 136 kts | 232° |
| 2026-04-12 12:31 | 47.34710 | 9.20943 | 9328 ft | 144 kts | 232° |
| 2026-04-12 12:31 | 47.34206 | 9.19649 | 9473 ft | 147 kts | 232° |
| 2026-04-12 12:31 | 47.33688 | 9.18333 | 9579 ft | 152 kts | 232° |
| 2026-04-12 12:32 | 47.33136 | 9.16951 | 9578 ft | 162 kts | 232° |
| 2026-04-12 12:32 | 47.32531 | 9.15481 | 9531 ft | 173 kts | 232° |
| 2026-04-12 12:32 | 47.32101 | 9.14469 | 9523 ft | 178 kts | 232° |
| 2026-04-12 12:32 | 47.31207 | 9.12409 | 9532 ft | 182 kts | 232° |
| 2026-04-12 12:33 | 47.30519 | 9.10828 | 9536 ft | 185 kts | 232° |
| 2026-04-12 12:33 | 47.29885 | 9.09163 | 9526 ft | 188 kts | 239° |
| 2026-04-12 12:33 | 47.29343 | 9.07397 | 9519 ft | 190 kts | 241° |
| 2026-04-12 12:33 | 47.28824 | 9.05604 | 9534 ft | 191 kts | 241° |
| 2026-04-12 12:34 | 47.28299 | 9.03802 | 9543 ft | 193 kts | 241° |
| 2026-04-12 12:34 | 47.27766 | 9.01972 | 9521 ft | 195 kts | 241° |
| 2026-04-12 12:34 | 47.27225 | 9.00129 | 9510 ft | 196 kts | 241° |
| 2026-04-12 12:34 | 47.26693 | 8.98295 | 9520 ft | 194 kts | 241° |
| 2026-04-12 12:35 | 47.26158 | 8.96460 | 9534 ft | 195 kts | 241° |
| 2026-04-12 12:35 | 47.25638 | 8.94659 | 9764 ft | 182 kts | 241° |
| 2026-04-12 12:35 | 47.25180 | 8.92996 | 10041 ft | 170 kts | 241° |
| 2026-04-12 12:35 | 47.24759 | 8.91428 | 10248 ft | 161 kts | 241° |
| 2026-04-12 12:36 | 47.24348 | 8.89923 | 10439 ft | 159 kts | 240° |
| 2026-04-12 12:36 | 47.23930 | 8.88439 | 10606 ft | 156 kts | 239° |
| 2026-04-12 12:36 | 47.23494 | 8.86934 | 10620 ft | 164 kts | 239° |
| 2026-04-12 12:36 | 47.23023 | 8.85349 | 10581 ft | 174 kts | 239° |
| 2026-04-12 12:37 | 47.22520 | 8.83689 | 10532 ft | 180 kts | 239° |
| 2026-04-12 12:37 | 47.22012 | 8.82014 | 10517 ft | 180 kts | 239° |
| 2026-04-12 12:37 | 47.21494 | 8.80318 | 10525 ft | 183 kts | 239° |
| 2026-04-12 12:37 | 47.20969 | 8.78600 | 10529 ft | 185 kts | 239° |
| 2026-04-12 12:38 | 47.20439 | 8.76870 | 10529 ft | 186 kts | 239° |
| 2026-04-12 12:38 | 47.19904 | 8.75121 | 10527 ft | 188 kts | 239° |
| 2026-04-12 12:38 | 47.19369 | 8.73367 | 10527 ft | 188 kts | 240° |
| 2026-04-12 12:38 | 47.18839 | 8.71597 | 10522 ft | 190 kts | 241° |
| 2026-04-12 12:39 | 47.18307 | 8.69819 | 10527 ft | 190 kts | 240° |
| 2026-04-12 12:39 | 47.17755 | 8.68043 | 10543 ft | 192 kts | 240° |
| 2026-04-12 12:39 | 47.17161 | 8.66276 | 10537 ft | 193 kts | 240° |
| 2026-04-12 12:39 | 47.16541 | 8.64511 | 10528 ft | 195 kts | 236° |
| 2026-04-12 12:40 | 47.15738 | 8.62900 | 10518 ft | 195 kts | 227° |
| 2026-04-12 12:40 | 47.14838 | 8.61456 | 10529 ft | 193 kts | 226° |
| 2026-04-12 12:40 | 47.13969 | 8.59947 | 10531 ft | 194 kts | 229° |
| 2026-04-12 12:40 | 47.13125 | 8.58394 | 10519 ft | 195 kts | 229° |
| 2026-04-12 12:41 | 47.12170 | 8.56966 | 10338 ft | 204 kts | 220° |
| 2026-04-12 12:41 | 47.11046 | 8.55519 | 9863 ft | 225 kts | 219° |
| 2026-04-12 12:41 | 47.09823 | 8.53974 | 9349 ft | 239 kts | 219° |
| 2026-04-12 12:41 | 47.08534 | 8.52352 | 8843 ft | 249 kts | 219° |
| 2026-04-12 12:42 | 47.07196 | 8.50670 | 8328 ft | 256 kts | 219° |
| 2026-04-12 12:42 | 47.04602 | 8.47364 | 7305 ft | 240 kts | 220° |
| 2026-04-12 12:42 | 47.03359 | 8.45761 | 6844 ft | 236 kts | 219° |
| 2026-04-12 12:43 | 47.02286 | 8.43970 | 6363 ft | 234 kts | 240° |
| 2026-04-12 12:43 | 47.01834 | 8.41704 | 5889 ft | 233 kts | 265° |
| 2026-04-12 12:43 | 47.01823 | 8.39392 | 5407 ft | 228 kts | 271° |
| 2026-04-12 12:43 | 47.01940 | 8.37065 | 4845 ft | 228 kts | 275° |
| 2026-04-12 12:44 | 47.01677 | 8.34841 | 4225 ft | 224 kts | 232° |
| 2026-04-12 12:44 | 47.00328 | 8.34194 | 3815 ft | 210 kts | 161° |
| 2026-04-12 12:44 | 46.99616 | 8.35633 | 3729 ft | 178 kts | 77° |
| 2026-04-12 12:44 | 47.00165 | 8.37136 | 3695 ft | 155 kts | 58° |
| 2026-04-12 12:45 | 47.00711 | 8.38444 | 3586 ft | 148 kts | 57° |
| 2026-04-12 12:45 | 47.01249 | 8.39765 | 3532 ft | 154 kts | 56° |
| 2026-04-12 12:45 | 47.01841 | 8.41077 | 3521 ft | 154 kts | 58° |
| 2026-04-12 12:45 | 47.02321 | 8.42482 | 3513 ft | 154 kts | 63° |
| 2026-04-12 12:46 | 47.02773 | 8.43908 | 3506 ft | 151 kts | 78° |
| 2026-04-12 12:46 | 47.02274 | 8.45079 | 3530 ft | 145 kts | 149° |
| 2026-04-12 12:46 | 47.01399 | 8.45766 | 3319 ft | 144 kts | 152° |
| 2026-04-12 12:46 | 47.00469 | 8.46329 | 2918 ft | 144 kts | 167° |
| 2026-04-12 12:47 | 46.99510 | 8.46170 | 2541 ft | 142 kts | 211° |
| 2026-04-12 12:47 | 46.98953 | 8.45022 | 2095 ft | 144 kts | 254° |
| 2026-04-12 12:47 | 46.98663 | 8.43656 | 1813 ft | 139 kts | 252° |
| 2026-04-12 12:47 | 46.98305 | 8.42338 | 1634 ft | 139 kts | 247° |
| 2026-04-12 12:48 | 46.97893 | 8.41079 | 1468 ft | 131 kts | 245° |
| 2026-04-12 12:48 | 46.97581 | 8.40128 | 1446 ft | 78 kts | 244° |
| 2026-04-12 12:48 | 46.97385 | 8.39537 | 1454 ft | 54 kts | 244° |
| 2026-04-12 12:48 | 46.97353 | 8.39337 | 1460 ft | 16 kts | 328° |
| 2026-04-12 12:49 | 46.97420 | 8.39235 | 1459 ft | 0 kts | 271° |